Time;durP1;ratioP1;P1;durP2;ratioP2;P2;SDS_P1;SDS_P2;PMS_P1;PMS_P2;Temp;Humidity;BMP_temperature;BMP_pressure;BME280_temperature;BME280_humidity;BME280_pressure;Samples;Min_cycle;Max_cycle;Signal;HPM_P1;HPM_P2
2021/06/24 00:01:17;;;;;;;16.17;7.12;;;;;;;21.71;81.63;100758.88;1708896;84;20888;-69
2021/06/24 00:03:44;;;;;;;25.88;6.67;;;;;;;21.69;81.54;100756.88;1708737;84;20975;-70
2021/06/24 00:06:11;;;;;;;19.02;7.10;;;;;;;21.66;81.76;100751.36;1708892;82;21302;-71
2021/06/24 00:08:38;;;;;;;23.52;7.62;;;;;;;21.67;81.73;100745.52;1708892;84;21843;-70
2021/06/24 00:11:06;;;;;;;21.02;6.85;;;;;;;21.65;81.87;100754.18;1708925;84;20920;-70
2021/06/24 00:13:33;;;;;;;21.93;7.00;;;;;;;21.64;82.04;100756.53;1708777;84;20893;-70
2021/06/24 00:16:00;;;;;;;20.68;7.00;;;;;;;21.63;82.23;100751.70;1708997;84;20928;-70
2021/06/24 00:18:28;;;;;;;21.30;6.72;;;;;;;21.63;82.28;100753.03;1708859;84;21346;-69
2021/06/24 00:20:56;;;;;;;19.00;6.37;;;;;;;21.64;82.53;100748.52;1708851;84;21343;-72
2021/06/24 00:23:24;;;;;;;20.68;5.40;;;;;;;21.64;82.79;100745.85;1708808;84;20920;-70
2021/06/24 00:25:50;;;;;;;19.55;6.58;;;;;;;21.68;82.70;100749.88;1708979;84;20928;-70
2021/06/24 00:28:17;;;;;;;22.62;6.53;;;;;;;21.71;82.64;100749.03;1708730;84;20932;-71
2021/06/24 00:30:48;;;;;;;18.98;7.10;;;;;;;21.77;82.39;100757.42;1709143;83;20932;-70
2021/06/24 00:33:16;;;;;;;22.25;6.90;;;;;;;21.82;81.99;100751.08;1708930;84;21519;-70
2021/06/24 00:35:43;;;;;;;25.45;6.92;;;;;;;21.86;81.84;100747.92;1709078;82;21430;-70
2021/06/24 00:38:10;;;;;;;25.20;7.10;;;;;;;21.90;81.64;100748.45;1708753;82;21353;-70
2021/06/24 00:40:39;;;;;;;23.22;7.80;;;;;;;21.92;81.49;100744.61;1708744;84;21430;-70
2021/06/24 00:43:11;;;;;;;18.60;5.85;;;;;;;21.97;81.37;100748.63;1708896;84;21409;-71
2021/06/24 00:45:40;;;;;;;28.70;7.17;;;;;;;21.98;81.19;100744.44;1738354;82;21165;-68
2021/06/24 00:48:08;;;;;;;16.70;5.75;;;;;;;21.96;81.31;100737.09;1752472;81;20928;-69
2021/06/24 00:50:36;;;;;;;18.32;6.53;;;;;;;21.92;81.55;100739.27;1757859;81;20876;-69
2021/06/24 00:53:04;;;;;;;26.33;5.75;;;;;;;21.91;81.63;100739.42;1757986;80;20944;-69
2021/06/24 00:55:41;;;;;;;14.98;5.62;;;;;;;21.92;81.58;100737.94;1757881;81;21018;-69
2021/06/24 00:58:23;;;;;;;17.67;7.08;;;;;;;21.93;81.61;100738.25;1757930;81;21165;-69
2021/06/24 01:00:54;;;;;;;15.10;6.42;;;;;;;21.92;81.95;100741.94;1758075;81;20872;-69
2021/06/24 01:03:22;;;;;;;17.17;5.97;;;;;;;21.92;81.99;100737.08;1757999;81;20936;-69
2021/06/24 01:05:52;;;;;;;20.27;5.75;;;;;;;21.90;81.82;100741.27;1757863;81;20980;-69
2021/06/24 01:08:23;;;;;;;18.75;6.42;;;;;;;21.91;81.65;100738.92;1757912;81;20932;-68
2021/06/24 01:10:50;;;;;;;14.47;5.97;;;;;;;21.96;81.41;100734.42;1757758;81;21143;-70
2021/06/24 01:13:20;;;;;;;20.55;6.53;;;;;;;22.03;81.13;100742.14;1757932;81;21015;-69
2021/06/24 01:15:47;;;;;;;13.93;6.10;;;;;;;22.08;80.85;100736.30;1695782;83;21592;-69
2021/06/24 01:18:15;;;;;;;24.20;5.65;;;;;;;22.14;80.67;100743.62;1721805;82;20944;-69
2021/06/24 01:20:42;;;;;;;23.35;5.87;;;;;;;22.15;80.34;100739.47;1721892;83;20947;-68
2021/06/24 01:23:12;;;;;;;24.05;6.97;;;;;;;22.19;80.09;100739.98;1721831;83;21579;-67
2021/06/24 01:25:40;;;;;;;19.57;6.70;;;;;;;22.22;79.77;100744.19;1721792;83;20927;-68
2021/06/24 01:28:08;;;;;;;21.45;6.92;;;;;;;22.23;79.60;100744.03;1721837;83;20912;-68
2021/06/24 01:30:39;;;;;;;25.77;6.28;;;;;;;22.25;79.55;100746.52;1722108;83;20891;-68
2021/06/24 01:33:07;;;;;;;24.65;6.40;;;;;;;22.26;79.52;100736.19;1721894;82;20935;-68
2021/06/24 01:35:34;;;;;;;16.23;6.12;;;;;;;22.26;79.31;100737.52;1722131;83;21745;-69
2021/06/24 01:38:06;;;;;;;24.20;7.00;;;;;;;22.26;79.25;100726.84;1721704;83;20930;-68
2021/06/24 01:40:34;;;;;;;19.77;6.33;;;;;;;22.27;79.03;100733.33;1722139;83;20927;-69
2021/06/24 01:43:23;;;;;;;29.57;6.42;;;;;;;22.27;79.03;100733.33;1721740;83;20999;-71
2021/06/24 01:45:52;;;;;;;21.52;6.08;;;;;;;22.27;79.00;100717.30;1722000;83;21349;-69
2021/06/24 01:48:19;;;;;;;28.67;7.15;;;;;;;22.28;78.93;100731.01;1718815;83;21801;-69
2021/06/24 01:50:48;;;;;;;17.27;5.60;;;;;;;22.28;78.81;100728.84;1716341;83;20927;-68
2021/06/24 01:53:15;;;;;;;20.90;6.28;;;;;;;22.27;79.00;100722.64;1716484;83;20919;-68
2021/06/24 01:55:46;;;;;;;18.60;5.85;;;;;;;22.25;78.92;100723.30;1716328;83;20928;-68
2021/06/24 01:58:19;;;;;;;24.80;8.03;;;;;;;22.26;78.79;100721.49;1716488;83;21385;-67
2021/06/24 02:00:47;;;;;;;18.90;6.55;;;;;;;22.26;78.83;100718.31;1698252;83;21798;-69
2021/06/24 02:03:16;;;;;;;17.62;6.58;;;;;;;22.25;78.88;100716.62;1752341;80;20869;-69
2021/06/24 02:05:44;;;;;;;19.62;6.25;;;;;;;22.24;78.88;100728.33;1752412;82;20959;-69
2021/06/24 02:08:24;;;;;;;24.95;7.33;;;;;;;22.22;78.94;100730.33;1752414;82;20975;-69
2021/06/24 02:11:10;;;;;;;24.02;6.55;;;;;;;22.22;78.86;100728.16;1715344;82;20848;-68
2021/06/24 02:13:39;;;;;;;26.65;7.42;;;;;;;22.22;78.66;100713.47;1752507;80;21110;-69
2021/06/24 02:16:08;;;;;;;21.48;5.97;;;;;;;22.20;78.80;100712.26;1716571;83;21465;-70
2021/06/24 02:18:36;;;;;;;17.10;6.30;;;;;;;22.15;78.67;100717.27;1716425;82;20857;-69
2021/06/24 02:21:05;;;;;;;21.60;6.28;;;;;;;22.13;78.78;100713.93;1752297;80;20897;-68
2021/06/24 02:23:46;;;;;;;18.40;5.92;;;;;;;22.15;78.90;100718.61;1751592;81;20853;-68
2021/06/24 02:26:26;;;;;;;18.73;5.90;;;;;;;22.17;78.83;100719.78;1752655;80;21435;-68
2021/06/24 02:29:04;;;;;;;26.68;7.97;;;;;;;22.17;78.87;100717.95;1715842;83;20916;-69
2021/06/24 02:31:32;;;;;;;24.92;5.72;;;;;;;22.13;78.61;100717.42;1716576;83;20979;-69
2021/06/24 02:34:01;;;;;;;24.30;7.97;;;;;;;22.10;78.88;100719.61;1752171;81;20967;-69
2021/06/24 02:36:29;;;;;;;24.37;6.25;;;;;;;22.06;78.95;100715.59;1696677;83;20911;-69
2021/06/24 02:38:57;;;;;;;23.10;5.83;;;;;;;22.03;79.14;100722.58;1716180;82;21162;-69
2021/06/24 02:41:25;;;;;;;26.07;5.78;;;;;;;22.00;79.08;100714.91;1716352;83;20964;-70
2021/06/24 02:43:52;;;;;;;30.50;7.47;;;;;;;21.99;79.42;100722.09;1716333;83;21393;-68
2021/06/24 02:46:20;;;;;;;20.15;5.90;;;;;;;22.02;79.61;100723.09;1716329;83;20911;-69
2021/06/24 02:48:49;;;;;;;27.40;7.15;;;;;;;22.06;79.37;100718.27;1750439;81;20887;-69
2021/06/24 02:51:17;;;;;;;26.25;6.35;;;;;;;22.12;79.24;100717.58;1749738;82;21174;-68
2021/06/24 02:53:46;;;;;;;24.40;6.95;;;;;;;22.18;79.21;100719.60;1749719;81;20860;-69
2021/06/24 02:56:14;;;;;;;29.63;6.25;;;;;;;22.23;78.90;100717.80;1749797;82;20975;-70
2021/06/24 02:58:43;;;;;;;31.48;7.22;;;;;;;22.28;78.50;100714.16;1749756;82;20990;-68
2021/06/24 03:03:13;;;;;;;20.08;6.25;;;;;;;22.43;78.00;100716.46;1797880;79;22755;-68
2021/06/24 03:05:42;;;;;;;21.57;6.42;;;;;;;22.43;77.75;100720.47;1756443;80;20971;-68
2021/06/24 03:08:09;;;;;;;19.17;5.85;;;;;;;22.48;77.40;100728.02;1758276;80;21083;-68
2021/06/24 03:10:38;;;;;;;24.27;7.45;;;;;;;22.51;77.38;100725.00;1756330;81;20849;-69
2021/06/24 03:13:05;;;;;;;21.73;6.58;;;;;;;22.54;77.52;100719.30;1758310;80;21342;-69
2021/06/24 03:15:36;;;;;;;24.55;6.60;;;;;;;22.59;77.37;100711.64;1758245;80;20884;-69
2021/06/24 03:18:03;;;;;;;17.77;7.05;;;;;;;22.63;77.23;100715.62;1758271;80;21401;-68
2021/06/24 03:20:31;;;;;;;19.40;7.90;;;;;;;22.68;77.00;100711.96;1758269;80;21197;-69
2021/06/24 03:23:00;;;;;;;20.32;5.75;;;;;;;22.71;76.87;100708.94;1758668;80;21314;-69
2021/06/24 03:25:27;;;;;;;27.05;7.20;;;;;;;22.77;76.73;100708.78;1758014;80;20999;-68
2021/06/24 03:27:54;;;;;;;26.52;5.67;;;;;;;22.80;76.58;100713.77;1758586;80;20849;-68
2021/06/24 03:30:25;;;;;;;19.12;7.45;;;;;;;22.86;76.51;100718.96;1756949;80;20848;-68
2021/06/24 03:32:53;;;;;;;19.35;6.80;;;;;;;22.91;76.65;100725.45;1758546;80;21111;-68
2021/06/24 03:35:21;;;;;;;22.35;6.55;;;;;;;22.98;76.70;100722.93;1739114;81;21022;-69
2021/06/24 03:37:48;;;;;;;21.40;6.58;;;;;;;23.07;76.73;100723.78;1758212;80;20829;-69
2021/06/24 03:40:17;;;;;;;25.15;6.92;;;;;;;23.14;76.55;100710.05;1739061;80;20932;-69
2021/06/24 03:42:45;;;;;;;18.30;6.08;;;;;;;23.22;76.43;100711.36;1758494;81;20904;-69
2021/06/24 03:45:14;;;;;;;26.68;6.53;;;;;;;23.32;76.35;100724.05;1758292;80;21132;-68
2021/06/24 03:47:41;;;;;;;23.07;6.45;;;;;;;23.41;76.47;100733.36;1739549;81;20920;-68
2021/06/24 03:50:11;;;;;;;18.98;6.25;;;;;;;23.44;76.55;100729.02;1758333;81;21488;-69
2021/06/24 03:52:38;;;;;;;18.82;5.83;;;;;;;23.47;76.45;100722.80;1739329;81;20935;-68
2021/06/24 03:55:07;;;;;;;17.70;5.17;;;;;;;23.56;76.50;100728.44;1758210;81;20873;-68
2021/06/24 03:57:34;;;;;;;18.48;6.08;;;;;;;23.63;76.50;100729.92;1758687;81;21108;-68
2021/06/24 04:00:20;;;;;;;23.57;6.42;;;;;;;23.71;76.43;100727.20;1758241;81;21011;-68
2021/06/24 04:02:46;;;;;;;17.30;6.25;;;;;;;23.82;75.99;100732.71;1749085;81;21394;-68
2021/06/24 04:05:17;;;;;;;18.87;5.45;;;;;;;23.93;74.48;100727.46;1744629;81;20991;-68
2021/06/24 04:07:46;;;;;;;18.15;5.30;;;;;;;24.11;73.51;100725.33;1745471;81;20912;-70
2021/06/24 04:10:13;;;;;;;25.75;5.85;;;;;;;24.31;72.45;100718.98;1745296;81;21038;-68
2021/06/24 04:12:42;;;;;;;27.65;7.50;;;;;;;24.55;70.75;100724.69;1745019;81;20878;-67
2021/06/24 04:15:24;;;;;;;14.15;5.12;;;;;;;24.90;69.41;100726.86;1743687;81;21410;-70
2021/06/24 04:17:51;;;;;;;14.03;5.65;;;;;;;25.31;67.31;100720.58;1744602;81;20901;-67
2021/06/24 04:20:19;;;;;;;16.75;4.78;;;;;;;25.73;65.93;100726.27;1744655;81;20885;-68
2021/06/24 04:22:47;;;;;;;14.98;5.10;;;;;;;26.14;65.14;100723.82;1744523;81;21136;-68
2021/06/24 04:25:17;;;;;;;13.45;6.47;;;;;;;26.54;64.21;100722.02;1744398;81;20928;-68
2021/06/24 04:27:45;;;;;;;24.23;5.87;;;;;;;26.93;62.88;100730.93;1744633;80;21431;-68
2021/06/24 04:30:14;;;;;;;15.90;5.28;;;;;;;27.31;61.06;100733.78;1744903;81;21023;-68
2021/06/24 04:32:44;;;;;;;17.87;5.58;;;;;;;27.66;59.46;100734.56;1744808;81;20972;-71
2021/06/24 04:35:12;;;;;;;14.75;4.10;;;;;;;27.99;58.52;100737.88;1744562;81;21155;-72
2021/06/24 04:37:39;;;;;;;17.55;5.22;;;;;;;28.33;57.58;100730.69;1744504;82;21442;-69
2021/06/24 04:40:09;;;;;;;17.10;4.92;;;;;;;28.68;56.92;100732.67;1744548;81;20866;-69
2021/06/24 04:42:37;;;;;;;17.45;5.25;;;;;;;28.91;56.23;100731.72;1743924;81;20917;-69
2021/06/24 04:45:07;;;;;;;19.12;4.97;;;;;;;29.07;56.06;100738.54;1744271;81;20901;-68
2021/06/24 04:47:36;;;;;;;17.45;5.90;;;;;;;29.17;55.06;100727.34;1744332;80;21146;-70
2021/06/24 04:50:05;;;;;;;13.95;4.67;;;;;;;29.22;54.67;100727.53;1744942;80;21355;-68
2021/06/24 04:52:36;;;;;;;;;;;;;;;29.25;53.63;100727.09;1744903;81;20885;-70
2021/06/24 04:55:07;;;;;;;18.42;5.10;;;;;;;29.24;53.83;100716.52;1744594;81;20167;-70
2021/06/24 04:57:35;;;;;;;20.27;4.75;;;;;;;29.18;54.15;100723.59;1744862;81;20896;-71
2021/06/24 05:00:22;;;;;;;14.18;4.72;;;;;;;29.11;53.11;100722.78;1744607;81;21193;-74
2021/06/24 05:03:10;;;;;;;12.03;5.00;;;;;;;29.07;54.09;100722.34;1735508;82;21030;-76
2021/06/24 05:05:42;;;;;;;15.10;4.53;;;;;;;29.09;53.43;100718.11;1737483;81;20956;-73
2021/06/24 05:08:20;;;;;;;17.80;5.50;;;;;;;29.09;52.68;100718.94;1744737;81;20877;-74
2021/06/24 05:10:42;;;;;;;;;;;;;;;29.13;51.70;100712.60;1745914;81;20952;-75
2021/06/24 05:13:10;;;;;;;17.35;5.20;;;;;;;29.14;51.28;100700.22;1744555;81;21150;-70
2021/06/24 05:15:43;;;;;;;29.80;5.10;;;;;;;29.11;52.82;100711.45;1744489;82;20865;-71
2021/06/24 05:18:13;;;;;;;22.82;4.80;;;;;;;29.06;51.79;100704.98;1744652;82;21410;-70
2021/06/24 05:20:40;;;;;;;15.88;4.45;;;;;;;29.02;51.42;100712.70;1744502;80;20964;-71
2021/06/24 05:23:07;;;;;;;18.42;4.95;;;;;;;28.97;51.61;100713.86;1734377;81;20869;-70
2021/06/24 05:25:37;;;;;;;17.10;5.00;;;;;;;28.94;51.67;100708.86;1744769;82;21529;-70
2021/06/24 05:28:04;;;;;;;15.25;5.05;;;;;;;28.92;51.80;100714.99;1744619;82;20937;-74
2021/06/24 05:30:31;;;;;;;16.25;4.95;;;;;;;28.89;50.94;100714.90;1744793;80;20917;-72
2021/06/24 05:32:58;;;;;;;18.75;4.58;;;;;;;28.85;50.94;100715.53;1744398;82;20846;-69
2021/06/24 05:35:25;;;;;;;20.35;4.42;;;;;;;28.88;50.89;100717.30;1744840;81;20889;-72
2021/06/24 05:37:52;;;;;;;18.85;4.50;;;;;;;28.98;50.20;100724.95;1744536;81;21125;-70
2021/06/24 05:40:20;;;;;;;14.13;4.58;;;;;;;29.11;49.94;100718.73;1744703;81;20945;-73
2021/06/24 05:42:49;;;;;;;17.25;4.85;;;;;;;29.24;49.69;100721.92;1744524;80;20885;-72
2021/06/24 05:45:16;;;;;;;13.08;4.00;;;;;;;29.34;49.49;100723.11;1744742;81;20874;-73
2021/06/24 05:47:43;;;;;;;18.12;4.90;;;;;;;29.43;49.55;100729.64;1744535;80;21453;-68
2021/06/24 05:50:11;;;;;;;18.40;4.30;;;;;;;29.46;49.38;100721.09;1744512;81;21558;-69
2021/06/24 05:52:38;;;;;;;21.55;4.42;;;;;;;29.51;48.75;100729.41;1744566;82;20913;-71
2021/06/24 05:55:06;;;;;;;21.12;5.20;;;;;;;29.58;47.97;100726.14;1744510;81;21419;-71
2021/06/24 05:57:33;;;;;;;25.37;6.80;;;;;;;29.67;47.35;100729.43;1744454;82;20885;-69
2021/06/24 06:00:00;;;;;;;22.32;5.67;;;;;;;29.86;47.02;100727.68;1744904;80;21007;-69
2021/06/24 06:02:27;;;;;;;17.80;4.75;;;;;;;30.14;47.14;100738.13;1748721;81;21121;-69
2021/06/24 06:04:54;;;;;;;25.92;5.55;;;;;;;30.41;46.47;100719.02;1757784;81;20956;-69
2021/06/24 06:07:21;;;;;;;22.48;5.33;;;;;;;30.57;43.33;100727.42;1757897;81;21461;-69
2021/06/24 06:09:47;;;;;;;27.50;5.72;;;;;;;30.68;42.86;100719.61;1757885;81;20967;-69
2021/06/24 06:12:14;;;;;;;27.70;5.67;;;;;;;30.78;43.41;100718.05;1757854;81;20872;-69
2021/06/24 06:14:43;;;;;;;17.37;4.95;;;;;;;30.91;43.87;100721.20;1757450;81;20972;-70
2021/06/24 06:17:12;;;;;;;22.02;5.97;;;;;;;31.03;44.38;100713.14;1757842;81;21405;-69
2021/06/24 06:19:41;;;;;;;38.95;6.65;;;;;;;31.10;44.56;100707.66;1757855;81;21007;-69
2021/06/24 06:22:08;;;;;;;19.20;4.90;;;;;;;31.09;42.39;100712.78;1758165;81;20939;-69
2021/06/24 06:24:35;;;;;;;22.55;4.87;;;;;;;31.03;42.45;100717.73;1757930;81;20845;-70
2021/06/24 06:27:02;;;;;;;16.17;5.65;;;;;;;30.93;43.94;100711.50;1757785;81;21141;-70
2021/06/24 06:29:29;;;;;;;25.30;6.17;;;;;;;30.78;44.12;100711.81;1757810;81;20876;-69
2021/06/24 06:31:56;;;;;;;23.38;6.22;;;;;;;30.61;43.62;100721.55;1757906;81;21011;-72
2021/06/24 06:34:23;;;;;;;22.17;6.87;;;;;;;30.41;43.49;100721.73;1757807;80;20892;-70
2021/06/24 06:36:50;;;;;;;25.25;6.25;;;;;;;30.20;43.72;100722.38;1758108;81;20955;-69
2021/06/24 06:39:17;;;;;;;19.60;6.42;;;;;;;30.00;44.54;100716.28;1757855;80;21766;-71
2021/06/24 06:41:44;;;;;;;23.52;5.58;;;;;;;29.82;45.00;100715.67;1757678;80;20936;-70
2021/06/24 06:44:11;;;;;;;16.87;5.35;;;;;;;29.65;44.42;100718.83;1757795;81;21493;-69
2021/06/24 06:46:38;;;;;;;24.32;5.40;;;;;;;29.48;45.14;100728.46;1758110;81;20888;-70
2021/06/24 06:49:05;;;;;;;16.67;5.40;;;;;;;29.27;46.14;100719.61;1757802;81;20924;-72
2021/06/24 06:51:32;;;;;;;24.63;5.03;;;;;;;29.10;46.75;100730.06;1758026;80;21959;-69
2021/06/24 06:53:59;;;;;;;23.67;4.70;;;;;;;28.96;46.10;100740.53;1757751;81;21422;-70
2021/06/24 06:56:27;;;;;;;20.23;5.28;;;;;;;28.82;46.98;100738.38;1757889;81;20912;-68
2021/06/24 06:58:54;;;;;;;22.50;5.33;;;;;;;28.71;46.95;100739.02;1757956;80;21331;-69
2021/06/24 07:01:21;;;;;;;20.75;5.33;;;;;;;28.59;47.01;100736.62;1757921;81;20975;-69
2021/06/24 07:03:48;;;;;;;19.42;4.70;;;;;;;28.50;47.26;100736.00;1757753;81;21022;-69
2021/06/24 07:06:16;;;;;;;17.25;4.35;;;;;;;28.46;47.76;100742.31;1757863;81;20968;-70
2021/06/24 07:08:43;;;;;;;16.12;4.75;;;;;;;28.55;47.49;100740.77;1757900;81;21007;-71
2021/06/24 07:11:11;;;;;;;20.72;4.97;;;;;;;28.76;48.20;100743.79;1757740;81;21452;-70
2021/06/24 07:13:38;;;;;;;23.75;4.28;;;;;;;29.07;47.69;100745.29;1757951;81;20888;-70
2021/06/24 07:16:05;;;;;;;13.68;3.95;;;;;;;29.50;47.58;100742.59;1757865;81;21354;-67
2021/06/24 07:18:32;;;;;;;20.92;4.80;;;;;;;29.92;46.48;100757.39;1757792;81;20991;-69
2021/06/24 07:21:00;;;;;;;24.32;5.12;;;;;;;30.38;46.24;100744.66;1757569;81;20979;-67
2021/06/24 07:23:27;;;;;;;25.20;4.87;;;;;;;30.90;44.63;100743.08;1758096;81;20924;-68
2021/06/24 07:25:54;;;;;;;17.07;4.55;;;;;;;31.42;44.30;100744.12;1757752;81;20995;-67
2021/06/24 07:28:21;;;;;;;15.60;3.75;;;;;;;31.97;42.80;100744.88;1758157;81;21810;-68
2021/06/24 07:30:49;;;;;;;23.15;4.78;;;;;;;32.32;41.41;100747.38;1757905;81;20927;-67
2021/06/24 07:33:17;;;;;;;21.25;5.17;;;;;;;32.54;40.99;100756.64;1757887;81;20994;-67
2021/06/24 07:35:45;;;;;;;28.23;6.65;;;;;;;32.62;40.85;100760.92;1757581;81;20893;-67
2021/06/24 07:38:12;;;;;;;31.80;6.75;;;;;;;32.57;39.16;100758.05;1757990;81;21416;-68
2021/06/24 07:40:39;;;;;;;43.68;6.78;;;;;;;32.43;39.33;100747.38;1757871;81;21149;-67
2021/06/24 07:43:08;;;;;;;36.30;7.10;;;;;;;32.44;39.59;100750.95;1757988;81;20872;-68
2021/06/24 07:45:36;;;;;;;34.40;6.62;;;;;;;32.48;39.71;100747.22;1757595;80;20904;-67
2021/06/24 07:48:06;;;;;;;36.42;7.05;;;;;;;32.60;38.56;100758.42;1758122;81;20987;-68
2021/06/24 07:50:34;;;;;;;33.30;6.20;;;;;;;32.74;39.70;100759.02;1757969;81;20936;-67
2021/06/24 07:53:01;;;;;;;30.92;5.92;;;;;;;32.88;38.59;100754.17;1757913;81;21145;-67
2021/06/24 07:55:34;;;;;;;34.53;6.97;;;;;;;32.92;38.64;100753.17;1757986;81;20881;-67
2021/06/24 07:58:03;;;;;;;;;;;;;;;33.02;38.11;100745.27;1761008;81;21421;-67
2021/06/24 08:00:31;;;;;;;31.37;6.53;;;;;;;33.17;38.56;100743.42;1756914;81;20198;-68
2021/06/24 08:02:58;;;;;;;29.00;5.72;;;;;;;33.19;38.27;100746.73;1758174;81;20896;-67
2021/06/24 08:05:26;;;;;;;24.15;5.97;;;;;;;33.26;38.50;100747.41;1757887;81;21176;-66
2021/06/24 08:07:53;;;;;;;36.17;6.83;;;;;;;33.36;37.92;100749.00;1758136;81;20948;-67
2021/06/24 08:10:21;;;;;;;29.80;6.97;;;;;;;33.48;38.81;100739.98;1757973;81;20904;-68
2021/06/24 08:12:48;;;;;;;30.77;6.75;;;;;;;33.76;39.10;100741.39;1757857;81;21003;-67
2021/06/24 08:15:17;;;;;;;43.50;8.58;;;;;;;34.09;38.80;100744.44;1757993;80;21056;-67
2021/06/24 08:17:48;;;;;;;37.00;6.62;;;;;;;34.42;37.56;100746.39;1758204;81;21043;-68
2021/06/24 08:20:15;;;;;;;33.25;6.85;;;;;;;34.84;37.63;100744.58;1757931;81;20897;-67
2021/06/24 08:22:43;;;;;;;26.07;5.03;;;;;;;35.28;36.86;100748.75;1757960;81;20948;-71
2021/06/24 08:25:12;;;;;;;34.53;6.35;;;;;;;35.64;36.60;100737.77;1758204;80;20877;-71
2021/06/24 08:27:39;;;;;;;30.23;7.67;;;;;;;35.88;35.80;100745.09;1758064;81;21378;-71
2021/06/24 08:30:08;;;;;;;23.87;5.97;;;;;;;36.07;34.75;100736.00;1758245;81;21121;-71
2021/06/24 08:32:37;;;;;;;45.23;6.90;;;;;;;36.17;34.44;100742.11;1757892;81;21026;-70
2021/06/24 08:35:09;;;;;;;38.38;7.20;;;;;;;36.16;34.02;100738.30;1758194;80;20932;-72
2021/06/24 08:37:40;;;;;;;36.90;6.40;;;;;;;36.12;34.11;100738.53;1758139;80;20852;-71
2021/06/24 08:40:09;;;;;;;30.10;7.35;;;;;;;36.02;34.81;100735.97;1758287;81;20837;-70
2021/06/24 08:42:36;;;;;;;46.42;8.45;;;;;;;35.95;34.91;100734.52;1757697;81;21131;-70
2021/06/24 08:45:05;;;;;;;38.10;7.45;;;;;;;35.85;34.11;100743.44;1757914;81;21484;-70
2021/06/24 08:47:32;;;;;;;35.75;7.00;;;;;;;35.66;34.59;100747.05;1757876;81;20990;-70
2021/06/24 08:50:00;;;;;;;43.48;7.15;;;;;;;35.45;35.06;100748.70;1757901;81;20864;-71
2021/06/24 08:52:27;;;;;;;33.40;7.60;;;;;;;35.23;35.60;100754.97;1758160;81;21354;-71
2021/06/24 08:54:54;;;;;;;35.68;6.90;;;;;;;34.94;35.57;100754.28;1758010;80;22046;-70
2021/06/24 08:57:21;;;;;;;34.15;7.55;;;;;;;34.63;36.00;100759.81;1757965;81;20971;-71
2021/06/24 08:59:49;;;;;;;36.70;6.50;;;;;;;34.36;36.02;100757.72;1758063;81;20869;-73
2021/06/24 09:02:17;;;;;;;40.30;7.30;;;;;;;34.18;37.70;100763.41;1758027;80;21397;-71
2021/06/24 09:04:46;;;;;;;32.90;6.35;;;;;;;34.02;37.91;100754.94;1757916;80;20925;-70
2021/06/24 09:07:22;;;;;;;43.02;6.97;;;;;;;33.92;38.66;100753.92;1757921;81;21168;-71
2021/06/24 09:09:56;;;;;;;35.05;6.33;;;;;;;33.80;38.67;100753.44;1757924;81;20884;-69
2021/06/24 09:12:24;;;;;;;47.38;9.00;;;;;;;33.75;38.76;100748.42;1757621;81;20944;-69
2021/06/24 09:14:55;;;;;;;34.88;7.33;;;;;;;33.76;39.54;100753.63;1757942;80;20952;-71
2021/06/24 09:17:42;;;;;;;41.42;8.00;;;;;;;33.86;40.06;100767.95;1757942;81;21393;-68
2021/06/24 09:20:27;;;;;;;45.10;7.50;;;;;;;33.96;39.83;100761.35;1757924;81;21132;-67
2021/06/24 09:23:15;;;;;;;39.60;7.75;;;;;;;34.06;39.25;100762.06;1757832;81;20948;-67
2021/06/24 09:25:46;;;;;;;44.53;8.28;;;;;;;34.13;37.38;100762.78;1757836;81;20860;-68
2021/06/24 09:28:13;;;;;;;46.90;8.88;;;;;;;34.14;37.71;100761.70;1758207;81;20892;-67
2021/06/24 09:30:42;;;;;;;42.83;8.68;;;;;;;34.15;38.29;100757.08;1757964;81;20825;-68
2021/06/24 09:33:14;;;;;;;45.00;9.10;;;;;;;34.21;36.53;100761.00;1758129;81;21104;-67
2021/06/24 09:35:45;;;;;;;53.05;12.78;;;;;;;34.28;34.99;100764.92;1757314;80;20952;-67
2021/06/24 09:38:14;;;;;;;41.77;9.80;;;;;;;34.35;35.10;100762.05;1755282;80;20865;-67
2021/06/24 09:40:53;;;;;;;42.95;10.55;;;;;;;34.44;36.97;100771.45;1758015;81;20991;-68
2021/06/24 09:43:31;;;;;;;53.65;10.20;;;;;;;34.54;35.02;100760.73;1757864;81;20916;-67
2021/06/24 09:46:15;;;;;;;46.92;8.55;;;;;;;34.65;35.10;100768.02;1757825;81;21140;-66
2021/06/24 09:49:00;;;;;;;54.03;10.20;;;;;;;34.72;35.05;100773.84;1757906;80;21429;-67
2021/06/24 09:51:30;;;;;;;48.40;11.00;;;;;;;34.64;34.43;100780.52;1758145;80;20881;-67
2021/06/24 09:54:13;;;;;;;55.45;12.15;;;;;;;34.52;34.22;100761.52;1758130;81;20881;-67
2021/06/24 09:56:45;;;;;;;50.45;10.95;;;;;;;34.48;34.33;100765.80;1757748;81;20849;-67
2021/06/24 09:59:15;;;;;;;50.28;11.90;;;;;;;34.50;35.36;100778.64;1787802;79;21765;-67
2021/06/24 10:01:47;;;;;;;46.15;10.75;;;;;;;34.59;34.38;100780.42;1789476;80;20872;-66
2021/06/24 10:04:31;;;;;;;47.48;9.95;;;;;;;34.70;34.64;100780.08;1788035;80;20829;-67
2021/06/24 10:07:00;;;;;;;44.13;8.75;;;;;;;34.84;35.13;100778.12;1786509;80;20868;-67
2021/06/24 10:09:29;;;;;;;34.80;8.30;;;;;;;34.95;33.26;100779.11;1786925;80;21374;-66
2021/06/24 10:11:56;;;;;;;52.35;8.20;;;;;;;34.94;33.89;100772.54;1786512;80;21117;-66
2021/06/24 10:14:23;;;;;;;34.05;8.50;;;;;;;34.96;34.55;100773.94;1786428;80;20965;-67
2021/06/24 10:16:57;;;;;;;34.13;7.70;;;;;;;35.00;34.78;100784.62;1786608;80;20923;-67
2021/06/24 10:19:29;;;;;;;39.03;7.62;;;;;;;35.02;33.34;100781.66;1786768;80;20927;-67
2021/06/24 10:22:23;;;;;;;38.55;8.63;;;;;;;34.95;32.99;100780.47;1786219;80;20887;-65
2021/06/24 10:25:02;;;;;;;42.40;7.50;;;;;;;34.90;35.58;100787.20;1786469;79;21519;-67
2021/06/24 10:27:35;;;;;;;44.83;7.65;;;;;;;34.85;36.88;100786.58;1786597;80;20840;-65
2021/06/24 10:30:17;;;;;;;36.80;7.03;;;;;;;34.81;37.05;100787.33;1786653;79;20919;-64
2021/06/24 10:33:00;;;;;;;44.75;7.95;;;;;;;34.75;37.60;100795.13;1785897;80;20967;-67
2021/06/24 10:35:32;;;;;;;47.67;8.98;;;;;;;34.70;37.60;100788.25;1786783;80;20840;-67
2021/06/24 10:37:59;;;;;;;40.75;7.47;;;;;;;34.64;37.03;100785.45;1786769;80;21365;-67
2021/06/24 10:40:38;;;;;;;44.18;8.75;;;;;;;34.58;37.17;100779.59;1786412;80;20904;-68
2021/06/24 10:43:13;;;;;;;33.67;6.70;;;;;;;34.53;36.77;100775.44;1786848;80;20848;-67
2021/06/24 10:45:43;;;;;;;30.27;7.50;;;;;;;34.52;38.17;100779.22;1786421;79;21050;-67
2021/06/24 10:48:27;;;;;;;36.55;7.67;;;;;;;34.61;38.29;100782.36;1786811;80;20860;-67
2021/06/24 10:51:00;;;;;;;43.83;8.23;;;;;;;34.69;38.46;100782.53;1786694;80;21002;-67
2021/06/24 10:53:36;;;;;;;61.98;11.97;;;;;;;34.75;38.72;100785.59;1787139;79;20899;-67
2021/06/24 10:56:25;;;;;;;23.60;6.22;;;;;;;34.81;38.40;100784.06;1786624;80;21360;-67
2021/06/24 10:58:53;;;;;;;36.38;7.42;;;;;;;34.89;38.23;100789.64;1786720;79;20913;-67
2021/06/24 11:01:40;;;;;;;28.62;6.08;;;;;;;34.93;38.44;100786.71;1786585;80;20967;-66
2021/06/24 11:04:27;;;;;;;36.53;6.60;;;;;;;35.03;38.85;100784.66;1784855;80;22406;-66
2021/06/24 11:06:55;;;;;;;31.57;6.40;;;;;;;35.14;37.87;100789.75;1758675;80;21461;-69
2021/06/24 11:09:22;;;;;;;35.43;6.70;;;;;;;35.26;38.46;100789.09;1781560;80;20919;-67
2021/06/24 11:11:49;;;;;;;29.45;5.83;;;;;;;35.39;38.10;100792.80;1781663;80;21392;-67
2021/06/24 11:14:38;;;;;;;33.58;6.67;;;;;;;35.41;37.62;100792.02;1781555;80;20896;-66
2021/06/24 11:17:22;;;;;;;29.98;6.20;;;;;;;35.47;36.88;100785.55;1759740;80;21143;-68
2021/06/24 11:20:17;;;;;;;35.33;5.40;;;;;;;35.53;37.03;100780.15;1776648;79;21385;-68
2021/06/24 11:22:50;;;;;;;29.98;6.03;;;;;;;35.52;37.28;100786.15;1781506;80;20916;-68
2021/06/24 11:25:18;;;;;;;23.02;5.72;;;;;;;35.50;36.66;100778.21;1781637;80;21402;-68
2021/06/24 11:27:45;;;;;;;37.60;6.50;;;;;;;35.43;36.47;100782.22;1781781;80;20975;-68
2021/06/24 11:30:13;;;;;;;33.10;5.72;;;;;;;35.36;35.59;100781.59;1781589;80;21203;-68
2021/06/24 11:32:45;;;;;;;27.02;5.30;;;;;;;35.24;34.89;100781.18;1781817;80;20923;-68